Tonopah Airport
KTPH : now visible

Airfield :











YOU CAN JOIN US ON...

 
LOGIN :

Register | Disclaimer

   EN    FR    IT 

 









Legend :    VFR   Marginal VFR   IFR   Intensive IFR   Very Intensive IFR
Visi :
Ceiling :
>= 8 km
>= 3000ft
5 to 8 km
1000 to 3000 ft
1500m to 5 km
500 to 1000 ft
800 to 1500m
200 to 500 ft
< 800m
< 200 ft
Symbols :   Thunderstorms  Fog  Heavy snow  Heavy precipitations  Wind > 20 kt






- Airport Elevation : 5430 ft


KTPH - Tonopah

CURRENT METAR :
  • 291656Z AUTO 20011KT 10SM CLR 28/M01 A3015 RMK AO2 SLP123 T02831006

EXPIRED METARs :
  • 291556Z AUTO 17005KT 10SM CLR 26/M02 A3016 RMK AO2 SLP129 T02611017
  • 291456Z AUTO 35003KT 10SM CLR 23/M02 A3017 RMK AO2 SLP126 T02331022 51003

TAF KTPH
Valid from the 29 at 18:00 until the 30 at 18:00 UTC


291736Z 2918/3018 19012G20KT P6SM FEW250
FM292000 19022G30KT P6SM BKN250
FM300300 16008KT P6SM SCT200
FM301500 17027G36KT P6SM BKN250
FM301700 17038G46KT P6SM SCT250
KZLC FIR / North America



MET'MAP, your aeronautical weather chart ! - Copyright ORBIFLY December 2007 - Disclaimer

ORBIFLY MET'MAP TEAM :

Programming & Development : Alexandra Zaïnal
Concept & original design : Baudouin d'Aumeries
Assistance for programming : Marc-Olivier Méhu
Technical & hardware support : Manuel Goepfert

Contact : metmap@orbifly.com




SOURCES & CREDITS :

   NOAA       Earth
Advisory